createdAt,value
2022-10-02T00:02:48.017Z,15.87
2022-10-02T00:12:56.406Z,22.45
2022-10-02T00:23:07.066Z,18.17
2022-10-02T00:33:20.406Z,20.27
2022-10-02T00:43:28.826Z,19.23
2022-10-02T01:03:45.120Z,25.87
2022-10-02T01:13:49.558Z,18.60
2022-10-02T01:23:58.956Z,12.97
2022-10-02T01:34:04.388Z,21.80
2022-10-02T01:44:08.061Z,18.03
2022-10-02T01:54:22.239Z,23.67
2022-10-02T02:04:29.638Z,16.17
2022-10-02T02:14:37.286Z,19.97
2022-10-02T02:24:44.420Z,21.37
2022-10-02T02:34:52.222Z,11.50
2022-10-02T02:45:00.794Z,17.80
2022-10-02T02:55:09.779Z,23.73
2022-10-02T03:05:14.894Z,16.30
2022-10-02T03:15:29.181Z,18.43
2022-10-02T03:25:38.127Z,19.83
2022-10-02T03:35:43.803Z,14.13
2022-10-02T03:45:51.470Z,11.87
2022-10-02T03:56:01.939Z,14.57
2022-10-02T04:06:10.990Z,21.70
2022-10-02T04:16:20.957Z,24.60
2022-10-02T04:26:27.729Z,22.00
2022-10-02T04:36:43.949Z,16.93
2022-10-02T04:47:09.273Z,12.23
2022-10-02T04:57:34.347Z,15.87
2022-10-02T05:07:53.391Z,17.33
2022-10-02T05:18:17.733Z,15.63
2022-10-02T05:28:50.197Z,15.43
2022-10-02T05:39:03.813Z,14.97
2022-10-02T05:49:13.603Z,8.97
2022-10-02T05:59:27.203Z,9.43
2022-10-02T06:09:34.557Z,16.83
2022-10-02T06:19:44.459Z,10.83
2022-10-02T06:29:51.586Z,7.33
2022-10-02T06:40:12.445Z,7.83
2022-10-02T06:50:30.525Z,6.37
2022-10-02T07:00:46.072Z,6.40
2022-10-02T07:11:01.108Z,10.57
2022-10-02T07:21:11.177Z,5.30
2022-10-02T07:31:21.643Z,6.03
2022-10-02T07:41:48.403Z,7.00
2022-10-02T07:51:59.178Z,4.77
2022-10-02T08:02:09.071Z,7.10
2022-10-02T08:12:28.071Z,5.97
2022-10-02T08:22:38.795Z,2.17
2022-10-02T08:32:42.173Z,5.67
2022-10-02T08:43:17.313Z,7.17
2022-10-02T08:53:48.197Z,2.70
2022-10-02T09:04:38.251Z,3.13
2022-10-02T09:14:56.800Z,3.00
2022-10-02T09:25:22.625Z,2.77
2022-10-02T09:36:03.004Z,2.10
2022-10-02T09:46:30.693Z,1.90
2022-10-02T09:57:12.088Z,3.37
2022-10-02T10:07:48.035Z,3.73
2022-10-02T10:18:26.833Z,3.70
2022-10-02T10:28:57.617Z,2.40
2022-10-02T10:39:27.217Z,4.93
2022-10-02T10:50:24.695Z,7.80
2022-10-02T11:00:37.802Z,4.20
2022-10-02T11:11:09.817Z,4.27
2022-10-02T11:21:33.464Z,5.47
2022-10-02T11:31:53.972Z,7.20
2022-10-02T11:42:33.548Z,9.40
2022-10-02T11:52:57.738Z,5.53
2022-10-02T12:03:06.071Z,6.53
2022-10-02T12:13:27.634Z,5.00
2022-10-02T12:23:59.602Z,3.77
2022-10-02T12:34:32.238Z,7.57
2022-10-02T12:44:53.558Z,7.97
2022-10-02T12:55:13.954Z,5.77
2022-10-02T13:06:03.661Z,7.20
2022-10-02T13:16:16.803Z,4.10
2022-10-02T13:26:31.198Z,7.97
2022-10-02T13:36:48.191Z,9.83
2022-10-02T13:47:10.294Z,7.23
2022-10-02T13:57:31.207Z,11.53
2022-10-02T14:07:52.804Z,5.50
2022-10-02T14:18:30.692Z,6.93
2022-10-02T14:28:57.478Z,9.13
2022-10-02T14:39:19.395Z,8.23
2022-10-02T14:50:06.834Z,5.83
2022-10-02T15:00:18.461Z,8.10
2022-10-02T15:10:26.184Z,7.67
2022-10-02T15:20:38.452Z,6.77
2022-10-02T15:30:53.457Z,6.93
2022-10-02T15:41:16.607Z,6.53
2022-10-02T15:51:32.168Z,7.30
2022-10-02T16:01:47.558Z,9.17
2022-10-02T16:12:18.202Z,10.93
2022-10-02T16:22:43.507Z,9.70
2022-10-02T16:33:11.186Z,8.13
2022-10-02T16:43:35.468Z,7.53
2022-10-02T16:53:49.035Z,9.27
2022-10-02T17:04:13.858Z,11.07
2022-10-02T17:14:22.322Z,10.33
2022-10-02T17:25:31.805Z,13.60
2022-10-02T17:36:06.171Z,15.03
2022-10-02T17:46:41.334Z,15.40
2022-10-02T17:57:01.560Z,12.90
2022-10-02T18:07:23.665Z,9.53
2022-10-02T18:17:44.802Z,9.10
2022-10-02T18:28:04.228Z,8.97
2022-10-02T18:38:15.048Z,15.63
2022-10-02T18:48:45.285Z,21.00
2022-10-02T18:59:03.319Z,11.57
2022-10-02T19:09:19.321Z,11.67
2022-10-02T19:19:28.031Z,17.45
2022-10-02T19:29:36.943Z,16.10
2022-10-02T19:39:47.410Z,11.73
2022-10-02T19:49:53.708Z,15.03
2022-10-02T19:59:59.162Z,16.53
2022-10-02T20:10:07.240Z,16.27
2022-10-02T20:20:17.780Z,17.30
2022-10-02T20:30:23.138Z,15.23
2022-10-02T20:40:32.882Z,19.27
2022-10-02T20:50:42.647Z,14.30
2022-10-02T21:00:59.952Z,15.70
2022-10-02T21:11:32.126Z,14.13
2022-10-02T21:22:04.225Z,16.67
2022-10-02T21:32:31.852Z,17.50
2022-10-02T21:43:18.338Z,21.17
2022-10-02T21:53:50.889Z,17.13
2022-10-02T22:04:19.387Z,15.40
2022-10-02T22:14:31.215Z,16.23
2022-10-02T22:24:48.806Z,18.03
2022-10-02T22:35:00.255Z,13.27
2022-10-02T22:45:13.926Z,24.03
2022-10-02T22:55:23.817Z,18.97
2022-10-02T23:05:36.833Z,15.10
2022-10-02T23:15:52.100Z,21.50
2022-10-02T23:26:03.562Z,14.60
2022-10-02T23:36:20.148Z,24.07
2022-10-02T23:46:30.111Z,21.43
2022-10-02T23:56:54.251Z,16.73
